Time;durP1;ratioP1;P1;durP2;ratioP2;P2;SDS_P1;SDS_P2;PMS_P1;PMS_P2;Temp;Humidity;BMP_temperature;BMP_pressure;BME280_temperature;BME280_humidity;BME280_pressure;Samples;Min_cycle;Max_cycle;Signal;HPM_P1;HPM_P2
2023/12/19 00:00:36;;;;;;;57.70;25.55;;;;;;;;;;4832647;29;20058;-82
2023/12/19 00:03:02;;;;;;;51.00;24.92;;;;;;;;;;4825186;29;20121;-82
2023/12/19 00:05:28;;;;;;;51.00;23.65;;;;;;;;;;4834619;29;20046;-82
2023/12/19 00:07:54;;;;;;;45.05;22.60;;;;;;;;;;4836040;29;20042;-83
2023/12/19 00:10:20;;;;;;;46.50;23.45;;;;;;;;;;4831530;29;20054;-83
2023/12/19 00:12:45;;;;;;;45.08;21.65;;;;;;;;;;4827845;29;20171;-82
2023/12/19 00:15:11;;;;;;;43.88;21.30;;;;;;;;;;4837125;29;20057;-83
2023/12/19 00:17:39;;;;;;;42.13;20.80;;;;;;;;;;4836481;29;20137;-83
2023/12/19 00:20:05;;;;;;;49.97;22.08;;;;;;;;;;4841142;29;20054;-83
2023/12/19 00:22:31;;;;;;;42.33;21.38;;;;;;;;;;4839162;29;20046;-83
2023/12/19 00:24:57;;;;;;;42.75;21.30;;;;;;;;;;4830696;29;20090;-83
2023/12/19 00:27:23;;;;;;;47.58;21.30;;;;;;;;;;4837072;29;20046;-83
2023/12/19 00:29:49;;;;;;;43.70;20.23;;;;;;;;;;4838329;29;20054;-82
2023/12/19 00:32:15;;;;;;;40.22;20.25;;;;;;;;;;4823102;29;20612;-83
2023/12/19 00:34:41;;;;;;;39.47;20.83;;;;;;;;;;4835341;29;20054;-83
2023/12/19 00:37:07;;;;;;;43.58;21.77;;;;;;;;;;4836022;29;20126;-83
2023/12/19 00:39:33;;;;;;;37.10;20.80;;;;;;;;;;4839090;29;20077;-83
2023/12/19 00:41:59;;;;;;;41.83;20.45;;;;;;;;;;4832909;29;20845;-83
2023/12/19 00:44:25;;;;;;;42.05;21.00;;;;;;;;;;4830922;29;20061;-83
2023/12/19 00:46:51;;;;;;;38.08;19.65;;;;;;;;;;4827454;29;20507;-84
2023/12/19 00:49:17;;;;;;;44.70;20.67;;;;;;;;;;4823354;29;20054;-83
2023/12/19 00:51:43;;;;;;;44.95;20.60;;;;;;;;;;4827128;29;20120;-83
2023/12/19 00:54:09;;;;;;;40.08;20.75;;;;;;;;;;4822182;29;20042;-84
2023/12/19 00:56:37;;;;;;;40.72;20.40;;;;;;;;;;4837330;29;20077;-83
2023/12/19 00:59:02;;;;;;;38.83;20.88;;;;;;;;;;4838768;29;20141;-82
2023/12/19 01:01:28;;;;;;;45.15;20.40;;;;;;;;;;4836163;29;20511;-84
2023/12/19 01:03:54;;;;;;;36.17;18.90;;;;;;;;;;4836894;29;20094;-84
2023/12/19 01:06:21;;;;;;;39.42;19.38;;;;;;;;;;4827079;29;20390;-83
2023/12/19 01:08:47;;;;;;;38.08;18.48;;;;;;;;;;4835317;29;20103;-83
2023/12/19 01:11:13;;;;;;;35.47;18.92;;;;;;;;;;4824151;29;20153;-83
2023/12/19 01:13:39;;;;;;;33.08;17.60;;;;;;;;;;4836974;29;20062;-83
2023/12/19 01:16:06;;;;;;;34.53;18.42;;;;;;;;;;4839092;29;20052;-83
2023/12/19 01:18:32;;;;;;;35.10;18.92;;;;;;;;;;4838876;29;20106;-83
2023/12/19 01:20:58;;;;;;;42.13;18.95;;;;;;;;;;4852086;29;20045;-83
2023/12/19 01:23:25;;;;;;;39.13;18.95;;;;;;;;;;4836989;29;20106;-83
2023/12/19 01:25:51;;;;;;;37.40;19.25;;;;;;;;;;4838856;29;20714;-83
2023/12/19 01:28:17;;;;;;;35.75;17.80;;;;;;;;;;4835758;29;20054;-83
2023/12/19 01:30:43;;;;;;;36.90;19.02;;;;;;;;;;4836462;29;20117;-83
2023/12/19 01:33:09;;;;;;;31.80;16.70;;;;;;;;;;4839668;29;20050;-84
2023/12/19 01:35:36;;;;;;;27.13;16.30;;;;;;;;;;4835723;29;20061;-83
2023/12/19 01:38:02;;;;;;;28.85;15.73;;;;;;;;;;4832456;29;20066;-83
2023/12/19 01:40:28;;;;;;;28.27;16.27;;;;;;;;;;4834846;29;20094;-83
2023/12/19 01:42:55;;;;;;;25.02;15.00;;;;;;;;;;4832712;29;20137;-83
2023/12/19 01:45:21;;;;;;;26.73;15.50;;;;;;;;;;4837407;29;20057;-84
2023/12/19 01:47:49;;;;;;;29.05;15.32;;;;;;;;;;4838147;29;20158;-84
2023/12/19 01:50:16;;;;;;;24.52;14.80;;;;;;;;;;4839137;29;20401;-84
2023/12/19 01:52:43;;;;;;;24.77;14.73;;;;;;;;;;4836744;29;20049;-83
2023/12/19 01:55:10;;;;;;;25.95;14.00;;;;;;;;;;4837813;29;20859;-83
2023/12/19 01:57:36;;;;;;;24.95;14.38;;;;;;;;;;4835174;29;20476;-83
2023/12/19 02:00:04;;;;;;;23.67;13.80;;;;;;;;;;4835014;29;20548;-84
2023/12/19 02:02:31;;;;;;;23.20;14.70;;;;;;;;;;4850510;29;20049;-84
2023/12/19 02:04:57;;;;;;;22.83;13.93;;;;;;;;;;4821390;29;20538;-84
2023/12/19 02:07:23;;;;;;;25.15;14.68;;;;;;;;;;4827916;29;20077;-84
2023/12/19 02:09:49;;;;;;;24.35;13.82;;;;;;;;;;4820945;29;20142;-83
2023/12/19 02:12:15;;;;;;;22.25;13.88;;;;;;;;;;4825790;29;20041;-84
2023/12/19 02:14:44;;;;;;;22.55;13.65;;;;;;;;;;4838969;29;20037;-83
2023/12/19 02:17:14;;;;;;;23.70;14.45;;;;;;;;;;4835146;29;20050;-83
2023/12/19 02:19:44;;;;;;;22.08;13.82;;;;;;;;;;4821153;29;20053;-83
2023/12/19 02:22:10;;;;;;;22.05;12.75;;;;;;;;;;4837738;29;20070;-83
2023/12/19 02:24:36;;;;;;;23.70;14.27;;;;;;;;;;4833890;29;20132;-83
2023/12/19 02:27:03;;;;;;;24.65;14.18;;;;;;;;;;4836027;29;20115;-83
2023/12/19 02:29:29;;;;;;;22.23;13.27;;;;;;;;;;4836670;29;20050;-84
2023/12/19 02:31:55;;;;;;;22.90;13.70;;;;;;;;;;4821004;29;20056;-84
2023/12/19 02:34:21;;;;;;;24.05;14.32;;;;;;;;;;4833736;29;21184;-83
2023/12/19 02:36:47;;;;;;;22.58;14.18;;;;;;;;;;4837769;29;20068;-84
2023/12/19 02:39:13;;;;;;;21.23;13.82;;;;;;;;;;4825986;29;20073;-84
2023/12/19 02:41:39;;;;;;;23.45;13.68;;;;;;;;;;4832836;29;20810;-84
2023/12/19 02:44:05;;;;;;;23.30;14.23;;;;;;;;;;4837653;29;20058;-84
2023/12/19 02:46:32;;;;;;;20.67;12.93;;;;;;;;;;4834599;29;20061;-84
2023/12/19 02:48:58;;;;;;;21.55;12.95;;;;;;;;;;4838203;29;20062;-84
2023/12/19 02:51:25;;;;;;;21.83;13.32;;;;;;;;;;4835958;29;20085;-84
2023/12/19 02:53:51;;;;;;;21.67;13.25;;;;;;;;;;4834669;29;20105;-83
2023/12/19 02:56:17;;;;;;;17.98;12.07;;;;;;;;;;4835264;29;20061;-84
2023/12/19 02:58:43;;;;;;;21.75;12.63;;;;;;;;;;4836460;29;20050;-84
2023/12/19 03:01:10;;;;;;;25.15;13.07;;;;;;;;;;4831927;29;20084;-84
2023/12/19 03:03:36;;;;;;;20.00;12.07;;;;;;;;;;4820023;29;20057;-85
2023/12/19 03:06:03;;;;;;;18.42;11.90;;;;;;;;;;4837131;29;20042;-85
2023/12/19 03:08:29;;;;;;;20.27;12.68;;;;;;;;;;4836291;29;20154;-84
2023/12/19 03:10:55;;;;;;;18.27;11.48;;;;;;;;;;4834638;29;20057;-84
2023/12/19 03:13:21;;;;;;;19.73;12.43;;;;;;;;;;4835779;29;20429;-84
2023/12/19 03:15:47;;;;;;;21.45;12.60;;;;;;;;;;4835804;29;20189;-84
2023/12/19 03:18:12;;;;;;;21.40;12.43;;;;;;;;;;4842557;29;20409;-84
2023/12/19 03:20:38;;;;;;;18.60;11.77;;;;;;;;;;4830372;29;20105;-85
2023/12/19 03:23:04;;;;;;;18.30;10.60;;;;;;;;;;4832401;29;20050;-84
2023/12/19 03:25:30;;;;;;;18.00;11.40;;;;;;;;;;4824700;29;20489;-84
2023/12/19 03:27:56;;;;;;;16.77;11.32;;;;;;;;;;4835148;29;20088;-84
2023/12/19 03:30:22;;;;;;;17.67;11.20;;;;;;;;;;4834929;29;20370;-84
2023/12/19 03:32:48;;;;;;;17.48;11.50;;;;;;;;;;4834439;29;20053;-84
2023/12/19 03:35:15;;;;;;;18.77;11.35;;;;;;;;;;4834578;29;20795;-84
2023/12/19 03:37:41;;;;;;;18.00;11.50;;;;;;;;;;4836287;29;20416;-84
2023/12/19 03:40:07;;;;;;;19.55;11.35;;;;;;;;;;4834231;29;20052;-84
2023/12/19 03:42:33;;;;;;;18.35;10.57;;;;;;;;;;4828528;29;20486;-84
2023/12/19 03:45:00;;;;;;;16.83;10.73;;;;;;;;;;4817817;29;20115;-84
2023/12/19 03:47:26;;;;;;;16.77;10.95;;;;;;;;;;4819342;29;20086;-84
2023/12/19 03:49:52;;;;;;;16.85;10.25;;;;;;;;;;4818336;29;20092;-84
2023/12/19 03:52:18;;;;;;;15.57;10.05;;;;;;;;;;4817250;29;20817;-84
2023/12/19 03:54:45;;;;;;;16.27;10.30;;;;;;;;;;4831029;29;20657;-84
2023/12/19 03:57:11;;;;;;;16.77;11.15;;;;;;;;;;4834971;29;20089;-85
2023/12/19 03:59:37;;;;;;;17.83;11.05;;;;;;;;;;4832635;29;20084;-83
2023/12/19 04:02:03;;;;;;;17.85;11.32;;;;;;;;;;4833412;29;20054;-83
2023/12/19 04:04:29;;;;;;;18.25;11.20;;;;;;;;;;4819740;29;20107;-83
2023/12/19 04:06:55;;;;;;;15.88;10.25;;;;;;;;;;4831857;29;20054;-83
2023/12/19 04:09:21;;;;;;;18.75;11.18;;;;;;;;;;4818720;29;20046;-82
2023/12/19 04:11:48;;;;;;;20.75;10.68;;;;;;;;;;4830862;29;20472;-83
2023/12/19 04:14:17;;;;;;;16.75;10.55;;;;;;;;;;4825728;29;20057;-83
2023/12/19 04:16:43;;;;;;;17.25;10.88;;;;;;;;;;4825191;29;20057;-83
2023/12/19 04:19:09;;;;;;;17.58;10.60;;;;;;;;;;4828128;29;20054;-83
2023/12/19 04:21:36;;;;;;;18.73;10.38;;;;;;;;;;4835581;29;20590;-83
2023/12/19 04:24:03;;;;;;;15.60;10.27;;;;;;;;;;4842261;29;20111;-83
2023/12/19 04:26:29;;;;;;;16.85;10.15;;;;;;;;;;4836435;29;20095;-83
2023/12/19 04:28:55;;;;;;;19.65;11.30;;;;;;;;;;4835021;29;20050;-83
2023/12/19 04:31:21;;;;;;;15.70;10.30;;;;;;;;;;4835796;29;20050;-83
2023/12/19 04:33:47;;;;;;;16.33;10.60;;;;;;;;;;4835401;29;20053;-83
2023/12/19 04:36:13;;;;;;;15.27;9.98;;;;;;;;;;4833882;29;20060;-83
2023/12/19 04:38:39;;;;;;;17.70;10.07;;;;;;;;;;4831832;29;20119;-84
2023/12/19 04:41:05;;;;;;;19.10;9.50;;;;;;;;;;4827128;29;20049;-83
2023/12/19 04:43:32;;;;;;;16.30;10.15;;;;;;;;;;4835415;29;20369;-83
2023/12/19 04:46:02;;;;;;;16.38;10.27;;;;;;;;;;4835124;29;20181;-83
2023/12/19 04:48:31;;;;;;;20.00;11.38;;;;;;;;;;4837369;29;20053;-84
2023/12/19 04:50:58;;;;;;;20.35;10.43;;;;;;;;;;4835003;29;20153;-84
2023/12/19 04:53:24;;;;;;;18.77;11.45;;;;;;;;;;4835510;29;20045;-83
2023/12/19 04:55:50;;;;;;;22.02;11.15;;;;;;;;;;4834221;29;20045;-83
2023/12/19 04:58:16;;;;;;;18.23;10.75;;;;;;;;;;4832804;29;20145;-83
2023/12/19 05:00:42;;;;;;;15.40;10.82;;;;;;;;;;4832836;29;20489;-83
2023/12/19 05:03:08;;;;;;;17.17;10.55;;;;;;;;;;4837389;29;20066;-83
2023/12/19 05:05:34;;;;;;;18.10;10.50;;;;;;;;;;4838626;29;20042;-83
2023/12/19 05:08:00;;;;;;;16.58;10.00;;;;;;;;;;4838895;29;20591;-82
2023/12/19 05:10:26;;;;;;;16.98;10.00;;;;;;;;;;4836420;29;20054;-83
2023/12/19 05:12:52;;;;;;;17.27;9.48;;;;;;;;;;4834380;29;20077;-83
2023/12/19 05:15:18;;;;;;;17.58;9.77;;;;;;;;;;4832955;29;20863;-82
2023/12/19 05:17:44;;;;;;;15.30;9.43;;;;;;;;;;4838852;29;20050;-83
2023/12/19 05:20:10;;;;;;;16.60;10.32;;;;;;;;;;4837745;29;20110;-82
2023/12/19 05:22:36;;;;;;;16.45;9.82;;;;;;;;;;4837581;29;20050;-83
2023/12/19 05:25:02;;;;;;;15.55;9.65;;;;;;;;;;4839171;29;20576;-83
2023/12/19 05:27:28;;;;;;;14.68;9.50;;;;;;;;;;4837132;29;20054;-83
2023/12/19 05:29:54;;;;;;;16.70;9.82;;;;;;;;;;4839163;29;20630;-82
2023/12/19 05:32:20;;;;;;;17.80;10.02;;;;;;;;;;4838930;29;20176;-83
2023/12/19 05:34:46;;;;;;;16.38;10.07;;;;;;;;;;4836096;29;20058;-83
2023/12/19 05:37:12;;;;;;;16.67;9.50;;;;;;;;;;4833039;29;20516;-82
2023/12/19 05:39:38;;;;;;;18.58;10.07;;;;;;;;;;4838556;29;20085;-84
2023/12/19 05:42:04;;;;;;;15.00;9.23;;;;;;;;;;4835031;29;20103;-83
2023/12/19 05:44:30;;;;;;;16.75;9.05;;;;;;;;;;4839387;29;20052;-82
2023/12/19 05:46:56;;;;;;;13.82;8.70;;;;;;;;;;4831872;29;20050;-82
2023/12/19 05:49:22;;;;;;;15.15;8.25;;;;;;;;;;4826760;29;20085;-83
2023/12/19 05:51:48;;;;;;;14.73;8.77;;;;;;;;;;4836308;29;20095;-83
2023/12/19 05:54:14;;;;;;;13.63;7.93;;;;;;;;;;4834937;29;20053;-83
2023/12/19 05:56:40;;;;;;;12.10;7.82;;;;;;;;;;4821304;29;20065;-83
2023/12/19 05:59:06;;;;;;;12.25;7.60;;;;;;;;;;4835665;29;20068;-83
2023/12/19 06:01:32;;;;;;;11.10;7.32;;;;;;;;;;4834897;29;20061;-83
2023/12/19 06:04:00;;;;;;;11.73;7.63;;;;;;;;;;4839185;29;20089;-83
2023/12/19 06:06:26;;;;;;;11.70;7.15;;;;;;;;;;4830945;29;20050;-83
2023/12/19 06:08:52;;;;;;;20.95;13.55;;;;;;;;;;4836402;29;20068;-83
2023/12/19 06:11:26;;;;;;;16.63;10.82;;;;;;;;;;4836461;29;20113;-83
2023/12/19 06:13:52;;;;;;;12.00;8.35;;;;;;;;;;4850097;29;20080;-82
2023/12/19 06:16:18;;;;;;;13.77;9.98;;;;;;;;;;4834884;29;20523;-82
2023/12/19 06:18:44;;;;;;;15.02;8.90;;;;;;;;;;4836346;29;20056;-83
2023/12/19 06:21:10;;;;;;;13.68;8.40;;;;;;;;;;4835232;29;20054;-83
2023/12/19 06:23:36;;;;;;;12.50;8.73;;;;;;;;;;4838306;29;20057;-83
2023/12/19 06:26:02;;;;;;;12.88;8.02;;;;;;;;;;4838028;29;20064;-84
2023/12/19 06:28:28;;;;;;;11.82;7.55;;;;;;;;;;4836199;29;20073;-83
2023/12/19 06:30:54;;;;;;;24.30;13.45;;;;;;;;;;4836810;29;20076;-84
2023/12/19 06:33:20;;;;;;;25.27;13.50;;;;;;;;;;4835777;29;20163;-83
2023/12/19 06:35:53;;;;;;;17.85;11.05;;;;;;;;;;4820362;29;20054;-83
2023/12/19 06:38:19;;;;;;;13.20;7.93;;;;;;;;;;4830968;29;20061;-83
2023/12/19 06:40:46;;;;;;;17.50;10.65;;;;;;;;;;4837713;29;20525;-82
2023/12/19 06:43:12;;;;;;;11.55;7.88;;;;;;;;;;4831833;29;20058;-82
2023/12/19 06:45:38;;;;;;;10.80;7.00;;;;;;;;;;4834279;29;20045;-82
2023/12/19 06:48:04;;;;;;;10.57;7.07;;;;;;;;;;4834053;29;20101;-82
2023/12/19 06:50:30;;;;;;;13.77;7.30;;;;;;;;;;4836190;29;20061;-82
2023/12/19 06:52:56;;;;;;;11.07;6.93;;;;;;;;;;4836911;29;20078;-81
2023/12/19 06:55:22;;;;;;;9.60;6.68;;;;;;;;;;4835060;29;20046;-81
2023/12/19 06:57:48;;;;;;;11.98;7.80;;;;;;;;;;4837297;29;20054;-81
2023/12/19 07:00:16;;;;;;;10.13;6.43;;;;;;;;;;4837463;29;20050;-82
2023/12/19 07:02:42;;;;;;;10.85;6.60;;;;;;;;;;4834587;29;20054;-81
2023/12/19 07:05:09;;;;;;;10.50;7.10;;;;;;;;;;4836267;29;20121;-81
2023/12/19 07:07:36;;;;;;;12.73;7.60;;;;;;;;;;4836970;29;20084;-81
2023/12/19 07:10:03;;;;;;;10.48;6.78;;;;;;;;;;4835063;29;20109;-81
2023/12/19 07:12:29;;;;;;;10.38;6.95;;;;;;;;;;4837850;29;20057;-81
2023/12/19 07:14:55;;;;;;;9.98;7.13;;;;;;;;;;4837974;29;20614;-81
2023/12/19 07:17:22;;;;;;;9.98;6.95;;;;;;;;;;4837061;29;20061;-81
2023/12/19 07:19:48;;;;;;;11.63;6.70;;;;;;;;;;4836572;29;20600;-82
2023/12/19 07:22:14;;;;;;;10.82;6.95;;;;;;;;;;4835636;29;20507;-81
2023/12/19 07:24:40;;;;;;;11.82;7.10;;;;;;;;;;4833335;29;20060;-82
2023/12/19 07:27:06;;;;;;;10.50;7.55;;;;;;;;;;4855614;29;20149;-82
2023/12/19 07:29:32;;;;;;;9.45;6.93;;;;;;;;;;4854961;29;20501;-82
2023/12/19 07:31:58;;;;;;;12.25;8.40;;;;;;;;;;4846170;29;20086;-82
2023/12/19 07:34:24;;;;;;;11.38;7.63;;;;;;;;;;4836491;29;20073;-82
2023/12/19 07:36:51;;;;;;;11.02;7.60;;;;;;;;;;4829049;29;20696;-81
2023/12/19 07:39:17;;;;;;;10.75;6.88;;;;;;;;;;4822232;29;20058;-81
2023/12/19 07:41:43;;;;;;;10.88;7.25;;;;;;;;;;4837606;29;20112;-81
2023/12/19 07:44:09;;;;;;;11.13;7.43;;;;;;;;;;4835953;29;20149;-85
2023/12/19 07:46:42;;;;;;;10.57;7.10;;;;;;;;;;4844580;29;20050;-83
2023/12/19 07:49:08;;;;;;;11.15;7.50;;;;;;;;;;4835988;29;20046;-82
2023/12/19 07:51:34;;;;;;;11.52;6.50;;;;;;;;;;4836825;29;20049;-83
2023/12/19 07:54:00;;;;;;;10.00;6.45;;;;;;;;;;4835701;29;20058;-82
2023/12/19 07:56:26;;;;;;;11.15;6.75;;;;;;;;;;4834541;29;20042;-83
2023/12/19 07:58:52;;;;;;;10.82;6.72;;;;;;;;;;4818118;29;20413;-83
2023/12/19 08:01:18;;;;;;;10.10;6.70;;;;;;;;;;4819220;29;20541;-83
2023/12/19 08:03:45;;;;;;;11.98;6.45;;;;;;;;;;4822111;29;20056;-83
2023/12/19 08:06:11;;;;;;;11.70;6.88;;;;;;;;;;4837296;29;20389;-84
2023/12/19 08:08:37;;;;;;;10.70;6.95;;;;;;;;;;4834349;29;20050;-84
2023/12/19 08:11:03;;;;;;;10.35;6.90;;;;;;;;;;4836160;29;20061;-83
2023/12/19 08:13:30;;;;;;;8.90;6.57;;;;;;;;;;4836937;29;20050;-83
2023/12/19 08:15:56;;;;;;;11.35;6.35;;;;;;;;;;4836520;29;20127;-84
2023/12/19 08:18:21;;;;;;;10.68;6.38;;;;;;;;;;4836661;29;20046;-83
2023/12/19 08:20:48;;;;;;;9.20;6.45;;;;;;;;;;4836021;29;20385;-84
2023/12/19 08:23:15;;;;;;;9.32;6.43;;;;;;;;;;4837400;29;20517;-85
2023/12/19 08:25:41;;;;;;;10.52;6.47;;;;;;;;;;4836341;29;20523;-82
2023/12/19 08:28:11;;;;;;;10.90;6.18;;;;;;;;;;4837581;29;20054;-82
2023/12/19 08:30:37;;;;;;;9.95;6.30;;;;;;;;;;4837199;29;20106;-82
2023/12/19 08:33:03;;;;;;;9.18;6.57;;;;;;;;;;4836373;29;20050;-80
2023/12/19 08:35:32;;;;;;;8.52;6.00;;;;;;;;;;4835467;29;20149;-81
2023/12/19 08:37:58;;;;;;;8.65;6.03;;;;;;;;;;4849596;29;20602;-80
2023/12/19 08:40:24;;;;;;;9.45;6.07;;;;;;;;;;4839690;29;20044;-80
2023/12/19 08:42:50;;;;;;;7.95;5.38;;;;;;;;;;4839926;29;20504;-80
2023/12/19 08:45:16;;;;;;;7.65;5.57;;;;;;;;;;4840666;29;20517;-82
2023/12/19 08:47:46;;;;;;;9.27;5.50;;;;;;;;;;4839202;29;20083;-81
2023/12/19 08:50:13;;;;;;;8.10;5.55;;;;;;;;;;4840667;29;20046;-82
2023/12/19 08:52:40;;;;;;;8.73;5.63;;;;;;;;;;4839290;29;20077;-81
2023/12/19 08:55:07;;;;;;;8.88;5.70;;;;;;;;;;4839714;29;20058;-80
2023/12/19 08:57:40;;;;;;;8.73;5.43;;;;;;;;;;4837909;29;20068;-81
2023/12/19 09:00:08;;;;;;;8.52;5.95;;;;;;;;;;4840968;29;20041;-80
2023/12/19 09:02:34;;;;;;;7.35;5.60;;;;;;;;;;4858996;29;20129;-80
2023/12/19 09:05:00;;;;;;;8.50;5.95;;;;;;;;;;4850581;29;20086;-79
2023/12/19 09:07:26;;;;;;;12.63;6.20;;;;;;;;;;4823550;29;20058;-80
2023/12/19 09:09:54;;;;;;;7.90;6.18;;;;;;;;;;4836211;29;20085;-86
2023/12/19 09:12:20;;;;;;;10.40;7.10;;;;;;;;;;4854500;29;20557;-81
2023/12/19 09:14:48;;;;;;;9.68;6.53;;;;;;;;;;4824816;29;20085;-82
2023/12/19 09:17:13;;;;;;;10.43;7.60;;;;;;;;;;4820879;29;20058;-80
2023/12/19 09:19:39;;;;;;;12.13;7.40;;;;;;;;;;4837885;29;20724;-84
2023/12/19 09:22:05;;;;;;;12.13;7.68;;;;;;;;;;4838647;29;20060;-83
2023/12/19 09:24:31;;;;;;;12.82;7.55;;;;;;;;;;4840213;29;20060;-84
2023/12/19 09:26:58;;;;;;;12.98;8.20;;;;;;;;;;4838614;29;20046;-83
2023/12/19 09:29:25;;;;;;;12.20;7.85;;;;;;;;;;4839525;29;20077;-84
2023/12/19 09:31:52;;;;;;;13.52;8.10;;;;;;;;;;4840763;29;20064;-83
2023/12/19 09:34:18;;;;;;;13.50;8.63;;;;;;;;;;4839705;29;20072;-83
2023/12/19 09:36:45;;;;;;;13.77;9.02;;;;;;;;;;4838681;29;20398;-83
2023/12/19 09:39:14;;;;;;;16.20;9.00;;;;;;;;;;4837353;29;20046;-83
2023/12/19 09:41:45;;;;;;;16.92;9.48;;;;;;;;;;4837479;29;20065;-83
2023/12/19 09:44:11;;;;;;;14.32;8.95;;;;;;;;;;4823327;29;20051;-83
2023/12/19 09:46:38;;;;;;;19.02;9.73;;;;;;;;;;4819355;29;20816;-83
2023/12/19 09:49:04;;;;;;;15.68;9.75;;;;;;;;;;4818309;29;20074;-84
2023/12/19 09:51:32;;;;;;;16.70;10.02;;;;;;;;;;4819411;29;20051;-83
2023/12/19 09:54:00;;;;;;;15.77;10.07;;;;;;;;;;4819099;29;20119;-82
2023/12/19 09:56:26;;;;;;;14.30;9.95;;;;;;;;;;4821705;29;20062;-84
2023/12/19 09:58:54;;;;;;;15.40;9.85;;;;;;;;;;4831858;29;20110;-83
2023/12/19 10:01:20;;;;;;;16.00;9.82;;;;;;;;;;4839815;29;20160;-83
2023/12/19 10:03:46;;;;;;;20.05;10.40;;;;;;;;;;4837844;29;20137;-81
2023/12/19 10:06:12;;;;;;;15.68;9.57;;;;;;;;;;4837998;29;20113;-80
2023/12/19 10:08:42;;;;;;;15.70;10.43;;;;;;;;;;4837885;29;20054;-80
2023/12/19 10:11:09;;;;;;;16.00;10.20;;;;;;;;;;4837130;29;20527;-80
2023/12/19 10:13:36;;;;;;;16.27;10.05;;;;;;;;;;4838809;29;20054;-81
2023/12/19 10:16:04;;;;;;;14.27;9.85;;;;;;;;;;4820376;29;20054;-81
2023/12/19 10:18:30;;;;;;;16.90;9.95;;;;;;;;;;4819698;29;20051;-82
2023/12/19 10:21:19;;;;;;;16.33;9.75;;;;;;;;;;4820335;29;20046;-80
2023/12/19 10:23:46;;;;;;;15.05;10.32;;;;;;;;;;4836532;29;20050;-81
2023/12/19 10:26:12;;;;;;;14.07;10.02;;;;;;;;;;4853306;29;20066;-81
2023/12/19 10:28:40;;;;;;;14.60;9.85;;;;;;;;;;4837434;29;20061;-81
2023/12/19 10:31:10;;;;;;;15.15;9.73;;;;;;;;;;4837049;29;20154;-82
2023/12/19 10:33:56;;;;;;;15.88;10.45;;;;;;;;;;4837385;29;20065;-81
2023/12/19 10:36:25;;;;;;;12.30;9.13;;;;;;;;;;4835166;29;20572;-81
2023/12/19 10:38:52;;;;;;;12.77;8.77;;;;;;;;;;4848966;29;20050;-81
2023/12/19 10:41:19;;;;;;;14.77;9.73;;;;;;;;;;4837792;29;20165;-81
2023/12/19 10:43:46;;;;;;;13.55;8.80;;;;;;;;;;4838222;29;20054;-81
2023/12/19 10:46:15;;;;;;;12.15;8.25;;;;;;;;;;4837560;29;20045;-81
2023/12/19 10:48:41;;;;;;;14.88;8.75;;;;;;;;;;4838287;29;20067;-81
2023/12/19 10:51:08;;;;;;;14.20;8.98;;;;;;;;;;4837451;29;20385;-81
2023/12/19 10:53:36;;;;;;;13.13;8.73;;;;;;;;;;4832318;29;20054;-81
2023/12/19 10:56:03;;;;;;;12.30;8.40;;;;;;;;;;4820158;29;20054;-82
2023/12/19 10:58:29;;;;;;;10.45;7.95;;;;;;;;;;4831004;29;20046;-81
2023/12/19 11:00:57;;;;;;;11.68;8.27;;;;;;;;;;4837930;29;20057;-81
2023/12/19 11:03:31;;;;;;;12.75;8.15;;;;;;;;;;4837233;29;20050;-82
2023/12/19 11:05:57;;;;;;;10.98;7.53;;;;;;;;;;4820077;29;20054;-81
2023/12/19 11:08:26;;;;;;;10.65;7.63;;;;;;;;;;4819509;29;20462;-80
2023/12/19 11:10:56;;;;;;;10.15;7.78;;;;;;;;;;4819751;29;20091;-80
2023/12/19 11:13:22;;;;;;;10.63;8.32;;;;;;;;;;4831876;29;20108;-81
2023/12/19 11:15:52;;;;;;;9.68;7.88;;;;;;;;;;4836429;29;20069;-81
2023/12/19 11:18:27;;;;;;;10.25;8.15;;;;;;;;;;4835879;29;20526;-82
2023/12/19 11:20:57;;;;;;;11.77;8.30;;;;;;;;;;4838001;29;20050;-82
2023/12/19 11:23:39;;;;;;;10.25;7.97;;;;;;;;;;4837350;29;20122;-81
2023/12/19 11:26:17;;;;;;;15.10;8.13;;;;;;;;;;4831111;29;20046;-81
2023/12/19 11:28:43;;;;;;;10.68;8.15;;;;;;;;;;4835803;29;20528;-81
2023/12/19 11:31:29;;;;;;;11.45;8.57;;;;;;;;;;4836513;29;20723;-81
2023/12/19 11:33:56;;;;;;;12.00;8.30;;;;;;;;;;4837582;29;20065;-82
2023/12/19 11:36:22;;;;;;;10.90;8.43;;;;;;;;;;4827237;29;20062;-81
2023/12/19 11:38:49;;;;;;;12.88;8.40;;;;;;;;;;4830066;29;20141;-80
2023/12/19 11:41:37;;;;;;;13.43;9.00;;;;;;;;;;4851248;29;20062;-84
2023/12/19 11:44:03;;;;;;;12.45;8.85;;;;;;;;;;4850525;29;20053;-84
2023/12/19 11:46:29;;;;;;;12.48;9.20;;;;;;;;;;4836256;29;20054;-83
2023/12/19 11:48:55;;;;;;;11.20;9.20;;;;;;;;;;4835564;29;20110;-83
2023/12/19 11:51:40;;;;;;;10.85;8.70;;;;;;;;;;4835528;29;20101;-83
2023/12/19 11:54:10;;;;;;;12.10;8.57;;;;;;;;;;4818258;29;20053;-83
2023/12/19 11:56:36;;;;;;;12.90;9.15;;;;;;;;;;4824017;29;20064;-83
2023/12/19 11:59:02;;;;;;;11.20;8.40;;;;;;;;;;4837533;29;20081;-83
2023/12/19 12:01:28;;;;;;;12.30;8.38;;;;;;;;;;4837519;29;20081;-84
2023/12/19 12:04:07;;;;;;;12.68;9.38;;;;;;;;;;4851907;29;20149;-84
2023/12/19 12:06:34;;;;;;;12.80;8.77;;;;;;;;;;4837036;29;20060;-83
2023/12/19 12:09:00;;;;;;;13.90;9.00;;;;;;;;;;4836272;29;20465;-83
2023/12/19 12:11:27;;;;;;;10.68;8.35;;;;;;;;;;4837619;29;20164;-83
2023/12/19 12:14:01;;;;;;;10.82;8.25;;;;;;;;;;4839661;29;20050;-83
2023/12/19 12:16:37;;;;;;;10.85;8.73;;;;;;;;;;4839736;29;20065;-83
2023/12/19 12:19:13;;;;;;;9.80;8.02;;;;;;;;;;4841132;29;20060;-84
2023/12/19 12:21:44;;;;;;;10.93;8.20;;;;;;;;;;4839952;29;20482;-83
2023/12/19 12:24:16;;;;;;;9.38;7.50;;;;;;;;;;4839517;29;20057;-83
2023/12/19 12:26:43;;;;;;;10.40;7.75;;;;;;;;;;4838713;29;20061;-83
2023/12/19 12:29:08;;;;;;;9.50;7.50;;;;;;;;;;4840982;29;20129;-83
2023/12/19 12:31:35;;;;;;;11.23;7.68;;;;;;;;;;4841114;29;20046;-83
2023/12/19 12:34:01;;;;;;;9.73;7.50;;;;;;;;;;4853906;29;20058;-83
2023/12/19 12:36:27;;;;;;;8.45;7.40;;;;;;;;;;4840626;29;20058;-82
2023/12/19 12:38:56;;;;;;;9.70;7.07;;;;;;;;;;4839154;29;20054;-83
2023/12/19 12:41:23;;;;;;;8.57;6.70;;;;;;;;;;4840052;29;20136;-84
2023/12/19 12:43:50;;;;;;;7.15;6.10;;;;;;;;;;4823891;29;20062;-84
2023/12/19 12:46:19;;;;;;;8.55;6.65;;;;;;;;;;4840695;29;20050;-83
2023/12/19 12:48:53;;;;;;;7.43;6.38;;;;;;;;;;4839975;29;20061;-82
2023/12/19 12:51:20;;;;;;;7.63;6.13;;;;;;;;;;4839472;29;20521;-82
2023/12/19 12:53:57;;;;;;;6.45;5.57;;;;;;;;;;4837895;29;20125;-83
2023/12/19 12:56:34;;;;;;;8.27;6.13;;;;;;;;;;4854499;29;20121;-83
2023/12/19 12:59:06;;;;;;;8.10;5.55;;;;;;;;;;4838929;29;20110;-83
2023/12/19 13:01:32;;;;;;;6.47;5.63;;;;;;;;;;4839319;29;20144;-83
2023/12/19 13:03:58;;;;;;;7.30;5.65;;;;;;;;;;4839056;29;20053;-82
2023/12/19 13:06:25;;;;;;;7.28;5.93;;;;;;;;;;4840280;29;20053;-83
2023/12/19 13:08:54;;;;;;;5.93;4.68;;;;;;;;;;4838969;29;20054;-84
2023/12/19 13:11:21;;;;;;;6.63;5.15;;;;;;;;;;4838931;29;20056;-84
2023/12/19 13:13:47;;;;;;;5.65;4.93;;;;;;;;;;4837823;29;20792;-84
2023/12/19 13:16:13;;;;;;;5.35;4.63;;;;;;;;;;4838144;29;20053;-83
2023/12/19 13:18:39;;;;;;;5.43;4.80;;;;;;;;;;4854626;29;20141;-83
2023/12/19 13:21:05;;;;;;;5.70;5.00;;;;;;;;;;4853267;29;20450;-84
2023/12/19 13:23:32;;;;;;;5.93;4.40;;;;;;;;;;4832345;29;20056;-84
2023/12/19 13:25:58;;;;;;;6.53;4.70;;;;;;;;;;4838614;29;20777;-84
2023/12/19 13:28:24;;;;;;;4.88;4.32;;;;;;;;;;4840347;29;20058;-84
2023/12/19 13:30:51;;;;;;;5.22;4.50;;;;;;;;;;4839956;29;20129;-84
2023/12/19 13:33:17;;;;;;;6.85;5.45;;;;;;;;;;4833512;29;20413;-82
2023/12/19 13:35:44;;;;;;;5.55;4.28;;;;;;;;;;4845688;29;20917;-84
2023/12/19 13:38:10;;;;;;;6.50;4.68;;;;;;;;;;4836632;29;20058;-83
2023/12/19 13:40:38;;;;;;;4.95;4.32;;;;;;;;;;4839397;29;20049;-83
2023/12/19 13:43:05;;;;;;;4.97;4.47;;;;;;;;;;4838005;29;20129;-82
2023/12/19 13:45:32;;;;;;;6.80;4.90;;;;;;;;;;4835856;29;20133;-83
2023/12/19 13:47:59;;;;;;;6.55;5.20;;;;;;;;;;4819616;29;20792;-82
2023/12/19 13:50:25;;;;;;;4.97;4.22;;;;;;;;;;4819894;29;20051;-83
2023/12/19 13:52:51;;;;;;;6.53;4.63;;;;;;;;;;4819401;29;20502;-80
2023/12/19 13:55:17;;;;;;;5.30;4.80;;;;;;;;;;4821373;29;20042;-83
2023/12/19 13:57:44;;;;;;;4.40;3.90;;;;;;;;;;4837426;29;20054;-83
2023/12/19 14:00:14;;;;;;;4.90;3.97;;;;;;;;;;4837930;29;20054;-82
2023/12/19 14:02:41;;;;;;;5.97;4.70;;;;;;;;;;4837953;29;20085;-82
2023/12/19 14:05:07;;;;;;;4.65;4.25;;;;;;;;;;4838095;29;20060;-84
2023/12/19 14:07:34;;;;;;;5.47;4.60;;;;;;;;;;4839125;29;20500;-84
2023/12/19 14:10:01;;;;;;;7.75;5.97;;;;;;;;;;4837914;29;20767;-83
2023/12/19 14:12:28;;;;;;;6.70;5.75;;;;;;;;;;4835246;29;20054;-83
2023/12/19 14:14:54;;;;;;;9.93;6.93;;;;;;;;;;4818880;29;20081;-83
2023/12/19 14:17:20;;;;;;;6.22;5.30;;;;;;;;;;4820836;29;20113;-83
2023/12/19 14:19:46;;;;;;;6.80;5.25;;;;;;;;;;4817838;29;20103;-83
2023/12/19 14:22:12;;;;;;;7.60;4.40;;;;;;;;;;4827056;29;20705;-81
2023/12/19 14:24:39;;;;;;;6.00;5.03;;;;;;;;;;4834857;29;20046;-83
2023/12/19 14:27:05;;;;;;;5.63;4.70;;;;;;;;;;4836556;29;20062;-82